»·PEaware :: FDX1613 KLAS-KSFO

FDX1613 :: KLAS-KSFO

FLIGHT INFORMATION

Flight Status: Arrived
Operator:
Federal Express
More flights by this operator :: More flights under this callsign
Pilot: Clay B. (17061)
Aircraft: BOEING 757-200
(B752)
More flights by this aircraft type
Origin: KLAS McCarran Intl
United States
Destination: KSFO San Francisco Intl
United States
More flights between these airports :: More routes between these airports
Route: +SHEAD1 KENNO DYAMD DYAMD3
File this flight plan on PilotEdge
Remarks: PBN / A1B3B4B5C4D4O4 DOF / 171206 REG / N538SB EET / KZOA0025 OPR / FDX PER / D RMK / TCAS SIMBRIEF
Altitude:
(Current/Filed)
34,000ft
Speed:
(Current/Filed)
436kts
Departed: 05-Dec-17 05:16 PM
Arrived: 05-Dec-17 06:22 PM
Distance/Time
Traveled:
359nm/1:06
Distance/Time
To Go:
Arrived

Flight Plot

Page will automatically refresh every two minutes.

Flight plan parsing failed; only flown route is shown


Map Options




Map Legend


Flown Route
Filed Route
Departure Airport
Arrival Airport
Navaid (VOR, NDB)
Fix

Horizontal Profiles

Position Reports

Time Latitude Longitude Heading Altitude Ground
Speed
05-Dec-17 16:57 36.088972 -115.165730 179 2146ft 0kts
05-Dec-17 16:58 36.088972 -115.165730 179 2146ft 0kts
05-Dec-17 16:59 36.088972 -115.165730 179 2146ft 0kts
05-Dec-17 17:00 36.088972 -115.165730 179 2146ft 0kts
05-Dec-17 17:01 36.088972 -115.165730 179 2146ft 0kts
05-Dec-17 17:02 36.088972 -115.165730 179 2146ft 0kts
05-Dec-17 17:03 36.088972 -115.165730 179 2146ft 0kts
05-Dec-17 17:04 36.088972 -115.165730 179 2146ft 0kts
05-Dec-17 17:05 36.088971 -115.165730 179 2146ft 0kts
05-Dec-17 17:06 36.088971 -115.165730 179 2146ft 0kts
05-Dec-17 17:07 36.088971 -115.165730 179 2146ft 0kts
05-Dec-17 17:08 36.088795 -115.165963 309 2147ft 2kts
05-Dec-17 17:09 36.090171 -115.164256 24 2137ft 12kts
05-Dec-17 17:10 36.093748 -115.162293 21 2121ft 15kts
05-Dec-17 17:11 36.097956 -115.159835 23 2105ft 19kts
05-Dec-17 17:12 36.099448 -115.157971 201 2097ft 5kts
05-Dec-17 17:13 36.097979 -115.158898 207 2101ft 15kts
05-Dec-17 17:14 36.095329 -115.160403 205 2112ft 15kts
05-Dec-17 17:15 36.089083 -115.164006 205 2139ft 24kts
05-Dec-17 17:16 36.082811 -115.167590 205 2165ft 24kts
05-Dec-17 17:17 36.077853 -115.170423 205 2182ft 15kts
05-Dec-17 17:18 36.079266 -115.170546 52 2179ft 10kts
05-Dec-17 17:19 36.078348 -115.169996 158 2180ft 0kts
05-Dec-17 17:20 36.078348 -115.169996 158 2180ft 0kts
05-Dec-17 17:21 36.082773 -115.166175 25 2161ft 101kts
05-Dec-17 17:22 36.113970 -115.175489 278 3813ft 186kts
05-Dec-17 17:23 36.110211 -115.244158 269 4924ft 240kts
05-Dec-17 17:24 36.066516 -115.312553 200 7256ft 300kts
05-Dec-17 17:25 35.991759 -115.349711 200 10141ft 298kts
05-Dec-17 17:26 35.910709 -115.404496 228 11170ft 361kts
05-Dec-17 17:27 35.888937 -115.518872 272 11007ft 351kts
05-Dec-17 17:28 35.890344 -115.639392 273 11008ft 351kts
05-Dec-17 17:29 35.892396 -115.761655 273 13918ft 365kts
05-Dec-17 17:30 35.894440 -115.887958 273 16594ft 375kts
05-Dec-17 17:31 35.926467 -116.004531 319 19042ft 367kts
05-Dec-17 17:32 36.001071 -116.091913 320 21402ft 374kts
05-Dec-17 17:33 36.077876 -116.180632 319 23454ft 384kts
05-Dec-17 17:34 36.156131 -116.271110 319 25395ft 393kts
05-Dec-17 17:35 36.236499 -116.364296 319 27257ft 400kts
05-Dec-17 17:36 36.318516 -116.459660 318 28795ft 411kts
05-Dec-17 17:37 36.402321 -116.557407 317 30242ft 420kts
05-Dec-17 17:38 36.487820 -116.657435 317 31661ft 427kts
05-Dec-17 17:39 36.574990 -116.755083 326 33555ft 421kts
05-Dec-17 17:40 36.673505 -116.830862 327 34347ft 418kts
05-Dec-17 17:41 36.772756 -116.906546 327 34351ft 419kts
05-Dec-17 17:42 36.871146 -116.981639 328 34359ft 417kts
05-Dec-17 17:43 36.969754 -117.057144 328 34385ft 415kts
05-Dec-17 17:44 37.067794 -117.132459 330 34390ft 416kts
05-Dec-17 17:45 37.166810 -117.208705 331 34406ft 419kts
05-Dec-17 17:46 37.265789 -117.285165 331 34406ft 419kts
05-Dec-17 17:47 37.358198 -117.374629 323 34404ft 422kts
05-Dec-17 17:48 37.447558 -117.470407 320 34392ft 424kts
05-Dec-17 17:49 37.500766 -117.603337 281 34396ft 445kts
05-Dec-17 17:50 37.513736 -117.757952 279 34381ft 446kts
05-Dec-17 17:51 37.526283 -117.912859 279 34374ft 447kts
05-Dec-17 17:52 37.538619 -118.068144 280 34375ft 447kts
05-Dec-17 17:53 37.550780 -118.223951 279 34373ft 446kts
05-Dec-17 17:54 37.562705 -118.379340 280 34381ft 446kts
05-Dec-17 17:55 37.574430 -118.534873 280 34407ft 446kts
05-Dec-17 17:56 37.585799 -118.688340 279 34418ft 447kts
05-Dec-17 17:57 37.597075 -118.843372 279 34420ft 446kts
05-Dec-17 17:58 37.608141 -118.998308 279 34424ft 445kts
05-Dec-17 17:59 37.619004 -119.153295 279 34421ft 443kts
05-Dec-17 18:00 37.629666 -119.308361 279 34421ft 443kts
05-Dec-17 18:01 37.640037 -119.462158 279 34419ft 444kts
05-Dec-17 18:02 37.650270 -119.616949 279 34370ft 443kts
05-Dec-17 18:03 37.660266 -119.771221 278 34277ft 444kts
05-Dec-17 18:04 37.670040 -119.925440 278 33259ft 434kts
05-Dec-17 18:05 37.679412 -120.075837 278 31396ft 436kts
05-Dec-17 18:06 37.688542 -120.226034 278 29493ft 423kts
05-Dec-17 18:07 37.697269 -120.372492 277 27639ft 413kts
05-Dec-17 18:08 37.685916 -120.516314 264 25527ft 413kts
05-Dec-17 18:09 37.669491 -120.658435 263 23253ft 410kts
05-Dec-17 18:10 37.652825 -120.796147 262 21424ft 397kts
05-Dec-17 18:11 37.635796 -120.929939 262 19991ft 373kts
05-Dec-17 18:12 37.619563 -121.056437 262 18328ft 363kts
05-Dec-17 18:13 37.603549 -121.180110 262 16675ft 351kts
05-Dec-17 18:14 37.588446 -121.300107 263 15027ft 343kts
05-Dec-17 18:15 37.574922 -121.417771 263 13423ft 336kts
05-Dec-17 18:16 37.561524 -121.533117 263 11892ft 328kts
05-Dec-17 18:17 37.546726 -121.640907 255 11345ft 291kts
05-Dec-17 18:18 37.523914 -121.737306 254 10162ft 286kts
05-Dec-17 18:19 37.501215 -121.832152 254 9037ft 279kts
05-Dec-17 18:20 37.493935 -121.923885 275 8210ft 259kts
05-Dec-17 18:21 37.498887 -122.014259 276 7139ft 257kts
05-Dec-17 18:22 37.506871 -122.102335 297 6059ft 251kts
05-Dec-17 18:23 37.540188 -122.181563 296 3702ft 260kts
05-Dec-17 18:24 37.572441 -122.256507 305 1792ft 205kts
05-Dec-17 18:25 37.594946 -122.313028 300 821ft 175kts
05-Dec-17 18:26 37.616850 -122.365106 298 17ft 170kts
05-Dec-17 18:27 37.623136 -122.382194 232 31ft 1kts
05-Dec-17 18:28 37.620427 -122.383383 158 34ft 12kts
05-Dec-17 18:29 37.620176 -122.383286 130 34ft 6kts
05-Dec-17 18:30 37.617751 -122.382893 136 34ft 0kts
05-Dec-17 18:31 37.617752 -122.382895 136 34ft 0kts
05-Dec-17 18:32 37.617752 -122.382895 136 34ft 0kts
05-Dec-17 18:33 37.617752 -122.382895 136 34ft 0kts
05-Dec-17 18:34 37.617752 -122.382895 136 34ft 0kts

Navigation Log

Ident Type
Flight plan parsing failed, navigation log unavailable